createdAt,value
2019-06-25T00:01:13.369Z,59.40
2019-06-25T00:03:54.752Z,59.40
2019-06-25T00:06:36.222Z,59.40
2019-06-25T00:09:16.893Z,59.40
2019-06-25T00:11:57.688Z,59.40
2019-06-25T00:14:39.089Z,59.50
2019-06-25T00:17:19.774Z,59.50
2019-06-25T00:20:01.090Z,59.40
2019-06-25T00:22:41.838Z,59.50
2019-06-25T00:25:23.024Z,59.30
2019-06-25T00:28:04.354Z,59.50
2019-06-25T00:30:45.060Z,59.40
2019-06-25T00:33:26.534Z,59.50
2019-06-25T00:36:08.202Z,59.40
2019-06-25T00:38:49.641Z,59.40
2019-06-25T00:41:30.288Z,59.40
2019-06-25T00:44:11.574Z,59.40
2019-06-25T00:46:54.398Z,59.40
2019-06-25T00:49:35.772Z,59.40
2019-06-25T00:52:17.391Z,59.30
2019-06-25T00:54:58.031Z,59.40
2019-06-25T00:57:39.520Z,59.40
2019-06-25T01:00:21.156Z,59.40
2019-06-25T01:03:07.169Z,59.40
2019-06-25T01:05:48.759Z,59.40
2019-06-25T01:08:29.697Z,59.40
2019-06-25T01:11:10.867Z,59.40
2019-06-25T01:13:51.742Z,59.40
2019-06-25T01:16:32.506Z,59.50
2019-06-25T01:19:13.194Z,59.40
2019-06-25T01:21:53.840Z,60.10
2019-06-25T01:24:34.757Z,59.40
2019-06-25T01:27:15.407Z,59.40
2019-06-25T01:29:55.977Z,59.50
2019-06-25T01:32:36.823Z,59.40
2019-06-25T01:35:18.322Z,59.40
2019-06-25T01:37:59.728Z,59.40
2019-06-25T01:40:41.274Z,59.50
2019-06-25T01:43:22.716Z,59.50
2019-06-25T01:46:03.410Z,59.50
2019-06-25T01:48:45.082Z,59.40
2019-06-25T01:51:26.246Z,59.50
2019-06-25T01:54:07.892Z,59.40
2019-06-25T01:56:48.662Z,59.40
2019-06-25T01:59:29.345Z,59.40
2019-06-25T02:02:10.739Z,59.40
2019-06-25T02:04:51.440Z,59.40
2019-06-25T02:07:32.251Z,59.30
2019-06-25T02:10:13.908Z,59.40
2019-06-25T02:12:55.238Z,59.40
2019-06-25T02:15:36.893Z,59.40
2019-06-25T02:18:18.434Z,59.40
2019-06-25T02:20:59.975Z,59.50
2019-06-25T02:23:41.007Z,59.40
2019-06-25T02:26:22.515Z,59.40
2019-06-25T02:29:03.897Z,59.50
2019-06-25T02:31:44.655Z,59.40
2019-06-25T02:34:26.336Z,59.50
2019-06-25T02:37:07.623Z,59.40
2019-06-25T02:39:48.410Z,59.50
2019-06-25T02:42:29.276Z,59.40
2019-06-25T02:45:10.187Z,59.40
2019-06-25T02:47:51.139Z,59.50
2019-06-25T02:50:32.789Z,60.10
2019-06-25T02:53:14.677Z,59.50
2019-06-25T02:55:55.807Z,59.50
2019-06-25T02:58:36.921Z,59.40
2019-06-25T03:01:28.870Z,59.50
2019-06-25T03:04:01.184Z,59.50
2019-06-25T03:06:41.979Z,59.50
2019-06-25T03:09:23.268Z,59.50
2019-06-25T03:12:04.046Z,59.50
2019-06-25T03:14:44.869Z,59.50
2019-06-25T03:17:26.427Z,59.50
2019-06-25T03:20:07.859Z,59.50
2019-06-25T03:22:49.515Z,59.40
2019-06-25T03:25:31.077Z,59.50
2019-06-25T03:28:12.642Z,59.50
2019-06-25T03:30:53.331Z,59.40
2019-06-25T03:33:34.324Z,59.40
2019-06-25T03:36:15.636Z,59.50
2019-06-25T03:38:56.903Z,59.50
2019-06-25T03:41:37.650Z,59.50
2019-06-25T03:44:18.466Z,59.40
2019-06-25T03:47:00.022Z,59.40
2019-06-25T03:49:41.416Z,59.50
2019-06-25T03:52:22.174Z,59.40
2019-06-25T03:55:03.074Z,59.50
2019-06-25T03:57:44.289Z,59.50
2019-06-25T04:00:25.362Z,59.40
2019-06-25T04:03:06.179Z,59.50
2019-06-25T04:05:47.428Z,59.40
2019-06-25T04:08:28.954Z,59.50
2019-06-25T04:11:10.393Z,59.50
2019-06-25T04:13:51.052Z,59.50
2019-06-25T04:16:32.496Z,59.40
2019-06-25T04:19:13.997Z,59.40
2019-06-25T04:21:55.401Z,59.50
2019-06-25T04:24:36.428Z,59.50
2019-06-25T04:27:17.197Z,59.50
2019-06-25T04:29:58.241Z,59.50
2019-06-25T04:32:39.590Z,59.50
2019-06-25T04:35:20.479Z,59.40
2019-06-25T04:38:01.776Z,59.40
2019-06-25T04:40:43.401Z,59.40
2019-06-25T04:43:24.809Z,59.40
2019-06-25T04:46:05.408Z,59.40
2019-06-25T04:48:46.078Z,59.40
2019-06-25T04:51:27.042Z,59.40
2019-06-25T04:54:08.556Z,59.30
2019-06-25T04:56:49.260Z,59.30
2019-06-25T04:59:31.100Z,59.30
2019-06-25T05:02:12.430Z,59.30
2019-06-25T05:04:53.269Z,59.30
2019-06-25T05:07:34.677Z,59.30
2019-06-25T05:10:15.229Z,59.20
2019-06-25T05:12:56.026Z,59.20
2019-06-25T05:15:37.434Z,59.20
2019-06-25T05:18:18.783Z,59.30
2019-06-25T05:21:00.210Z,59.30
2019-06-25T05:23:41.028Z,59.20
2019-06-25T05:26:21.844Z,59.20
2019-06-25T05:29:02.609Z,59.20
2019-06-25T05:31:43.253Z,59.20
2019-06-25T05:34:23.942Z,59.30
2019-06-25T05:37:23.979Z,59.20
2019-06-25T05:40:04.691Z,59.20
2019-06-25T05:42:45.440Z,59.80
2019-06-25T05:45:26.270Z,59.10
2019-06-25T05:48:08.048Z,59.20
2019-06-25T05:50:48.952Z,59.80
2019-06-25T05:53:30.474Z,59.20
2019-06-25T05:56:11.135Z,59.10
2019-06-25T05:58:52.747Z,59.20
2019-06-25T06:01:33.858Z,59.10
2019-06-25T06:04:15.464Z,59.00
2019-06-25T06:06:56.256Z,59.00
2019-06-25T06:09:36.960Z,59.00
2019-06-25T06:12:17.754Z,59.00
2019-06-25T06:14:58.620Z,59.00
2019-06-25T06:17:39.357Z,58.80
2019-06-25T06:20:20.365Z,59.00
2019-06-25T06:23:01.359Z,59.00
2019-06-25T06:25:42.199Z,59.00
2019-06-25T06:28:23.803Z,59.50
2019-06-25T06:31:16.368Z,58.90
2019-06-25T06:33:50.232Z,58.90
2019-06-25T06:36:29.992Z,58.90
2019-06-25T06:39:13.504Z,58.90
2019-06-25T06:41:53.524Z,58.80
2019-06-25T06:44:34.926Z,58.90
2019-06-25T06:47:15.946Z,58.90
2019-06-25T06:49:56.758Z,59.50
2019-06-25T06:52:37.907Z,58.90
2019-06-25T06:55:18.668Z,58.90
2019-06-25T06:57:59.339Z,58.90
2019-06-25T07:00:40.896Z,58.80
2019-06-25T07:03:22.407Z,58.80
2019-06-25T07:06:03.155Z,58.80
2019-06-25T07:08:44.887Z,58.80
2019-06-25T07:11:26.269Z,58.80
2019-06-25T07:14:06.918Z,58.80
2019-06-25T07:16:47.864Z,58.80
2019-06-25T07:19:28.781Z,58.80
2019-06-25T07:22:16.768Z,58.80
2019-06-25T07:24:52.441Z,58.80
2019-06-25T07:27:38.039Z,58.80
2019-06-25T07:30:16.643Z,58.80
2019-06-25T07:32:58.262Z,58.70
2019-06-25T07:35:38.891Z,58.70
2019-06-25T07:38:20.134Z,58.70
2019-06-25T07:41:01.441Z,58.60
2019-06-25T07:43:42.935Z,58.60
2019-06-25T07:46:24.000Z,58.60
2019-06-25T07:49:05.056Z,58.50
2019-06-25T07:51:46.469Z,58.50
2019-06-25T07:54:27.329Z,58.50
2019-06-25T07:57:08.370Z,58.50
2019-06-25T07:59:50.210Z,58.40
2019-06-25T08:02:31.325Z,58.50
2019-06-25T08:05:12.056Z,58.50
2019-06-25T08:07:52.944Z,58.40
2019-06-25T08:10:34.193Z,58.40
2019-06-25T08:13:14.848Z,58.40
2019-06-25T08:15:56.212Z,58.40
2019-06-25T08:18:37.693Z,58.40
2019-06-25T08:21:19.090Z,58.40
2019-06-25T08:24:00.267Z,58.40
2019-06-25T08:26:41.536Z,58.40
2019-06-25T08:29:22.196Z,58.40
2019-06-25T08:32:03.106Z,58.40
2019-06-25T08:34:43.727Z,58.40
2019-06-25T08:37:24.460Z,58.40
2019-06-25T08:40:19.067Z,58.40
2019-06-25T08:42:49.093Z,58.30
2019-06-25T08:45:30.661Z,58.30
2019-06-25T08:48:11.495Z,58.30
2019-06-25T08:50:52.296Z,58.40
2019-06-25T08:53:33.835Z,58.40
2019-06-25T08:56:15.438Z,58.40
2019-06-25T08:58:56.179Z,58.30
2019-06-25T09:01:36.927Z,58.30
2019-06-25T09:04:17.585Z,58.30
2019-06-25T09:06:58.801Z,58.30
2019-06-25T09:09:39.566Z,58.30
2019-06-25T09:12:21.029Z,58.90
2019-06-25T09:15:01.879Z,58.30
2019-06-25T09:17:42.536Z,58.20
2019-06-25T09:20:23.846Z,58.20
2019-06-25T09:23:05.176Z,58.20
2019-06-25T09:25:46.877Z,58.20
2019-06-25T09:28:28.365Z,58.20
2019-06-25T09:31:09.210Z,58.20
2019-06-25T09:33:49.911Z,58.20
2019-06-25T09:36:32.651Z,58.20
2019-06-25T09:39:14.156Z,58.20
2019-06-25T09:41:54.960Z,58.20
2019-06-25T09:44:36.585Z,58.20
2019-06-25T09:47:18.309Z,58.20
2019-06-25T09:49:59.320Z,58.20
2019-06-25T09:52:40.902Z,58.20
2019-06-25T09:55:22.393Z,58.10
2019-06-25T09:58:03.139Z,58.10
2019-06-25T10:00:43.855Z,58.10
2019-06-25T10:03:25.124Z,58.10
2019-06-25T10:06:05.788Z,58.20
2019-06-25T10:08:46.931Z,58.10
2019-06-25T10:11:28.300Z,58.10
2019-06-25T10:14:09.601Z,58.10
2019-06-25T10:16:50.346Z,58.10
2019-06-25T10:19:31.584Z,58.00
2019-06-25T10:22:12.197Z,58.00
2019-06-25T10:24:53.587Z,58.00
2019-06-25T10:27:35.024Z,58.00
2019-06-25T10:30:16.321Z,58.00
2019-06-25T10:32:57.665Z,58.00
2019-06-25T10:35:47.418Z,58.00
2019-06-25T10:38:21.146Z,58.00
2019-06-25T10:41:01.750Z,57.90
2019-06-25T10:43:45.091Z,58.00
2019-06-25T10:46:26.073Z,58.00
2019-06-25T10:49:07.519Z,58.00
2019-06-25T10:51:48.245Z,57.90
2019-06-25T10:54:29.638Z,57.90
2019-06-25T10:57:11.241Z,57.90
2019-06-25T10:59:52.967Z,57.90
2019-06-25T11:02:34.515Z,57.90
2019-06-25T11:08:34.518Z,57.90
2019-06-25T11:11:34.452Z,57.80
2019-06-25T11:14:15.834Z,57.90
2019-06-25T11:16:56.501Z,57.90
2019-06-25T11:19:38.086Z,57.80
2019-06-25T11:22:18.750Z,57.90
2019-06-25T11:24:59.738Z,57.80
2019-06-25T11:27:41.297Z,57.90
2019-06-25T11:30:22.009Z,57.80
2019-06-25T11:33:04.191Z,57.80
2019-06-25T11:35:44.839Z,57.80
2019-06-25T11:38:25.993Z,57.80
2019-06-25T11:41:06.794Z,57.80
2019-06-25T11:43:48.250Z,57.80
2019-06-25T11:46:28.951Z,57.80
2019-06-25T11:49:09.738Z,57.80
2019-06-25T11:51:50.726Z,57.80
2019-06-25T11:54:32.194Z,57.80
2019-06-25T11:57:13.896Z,57.70
2019-06-25T11:59:54.632Z,57.80
2019-06-25T12:02:35.817Z,57.70
2019-06-25T12:05:16.635Z,57.80
2019-06-25T12:07:57.366Z,57.80
2019-06-25T12:10:38.236Z,57.80
2019-06-25T12:13:19.520Z,57.80
2019-06-25T12:16:01.032Z,57.80
2019-06-25T12:18:42.394Z,57.80
2019-06-25T12:21:23.050Z,57.80
2019-06-25T12:24:04.323Z,57.70
2019-06-25T12:26:45.791Z,57.80
2019-06-25T12:29:27.207Z,57.80
2019-06-25T12:35:26.104Z,57.70
2019-06-25T12:38:07.676Z,57.70
2019-06-25T12:40:48.760Z,57.70
2019-06-25T12:43:30.127Z,57.70
2019-06-25T12:49:30.227Z,57.70
2019-06-25T12:54:54.219Z,57.70
2019-06-25T12:57:35.708Z,57.80
2019-06-25T13:00:16.354Z,57.80
2019-06-25T13:02:57.891Z,57.70
2019-06-25T13:05:39.195Z,57.80
2019-06-25T13:08:20.088Z,57.80
2019-06-25T13:11:01.740Z,57.80
2019-06-25T13:13:43.345Z,58.30
2019-06-25T13:16:25.026Z,57.70
2019-06-25T13:19:05.874Z,57.80
2019-06-25T13:21:47.771Z,57.80
2019-06-25T13:24:29.001Z,57.70
2019-06-25T13:27:10.330Z,57.80
2019-06-25T13:29:51.771Z,57.70
2019-06-25T13:32:32.645Z,57.70
2019-06-25T13:35:14.248Z,57.70
2019-06-25T13:37:55.693Z,57.70
2019-06-25T13:40:37.091Z,57.70
2019-06-25T13:43:17.782Z,57.70
2019-06-25T13:45:59.172Z,57.70
2019-06-25T13:48:39.903Z,57.70
2019-06-25T13:51:21.331Z,57.70
2019-06-25T13:54:02.783Z,57.70
2019-06-25T13:56:44.372Z,57.70
2019-06-25T13:59:25.728Z,57.70
2019-06-25T14:02:06.721Z,57.70
2019-06-25T14:04:48.330Z,57.70
2019-06-25T14:07:29.073Z,57.60
2019-06-25T14:10:09.805Z,57.60
2019-06-25T14:12:50.737Z,57.60
2019-06-25T14:15:31.514Z,57.60
2019-06-25T14:18:12.529Z,57.60
2019-06-25T14:20:53.948Z,57.60
2019-06-25T14:23:35.589Z,57.60
2019-06-25T14:26:17.143Z,57.60
2019-06-25T14:28:58.809Z,57.60
2019-06-25T14:31:39.983Z,57.60
2019-06-25T14:34:20.738Z,57.80
2019-06-25T14:37:02.289Z,57.70
2019-06-25T14:39:43.058Z,57.60
2019-06-25T14:42:24.514Z,57.70
2019-06-25T14:45:06.003Z,57.70
2019-06-25T14:47:47.636Z,57.70
2019-06-25T14:50:29.279Z,57.70
2019-06-25T14:53:10.824Z,57.70
2019-06-25T14:55:51.734Z,57.70
2019-06-25T14:58:32.506Z,57.60
2019-06-25T15:01:14.195Z,57.70
2019-06-25T15:03:55.959Z,57.70
2019-06-25T15:06:36.802Z,57.70
2019-06-25T15:09:18.239Z,57.70
2019-06-25T15:11:58.876Z,58.30
2019-06-25T15:14:40.189Z,57.70
2019-06-25T15:17:21.294Z,57.70
2019-06-25T15:20:02.661Z,57.70
2019-06-25T15:22:43.388Z,57.70
2019-06-25T15:25:24.822Z,57.70
2019-06-25T15:28:05.530Z,57.70
2019-06-25T15:30:47.202Z,57.70
2019-06-25T15:33:28.566Z,57.70
2019-06-25T15:36:09.217Z,57.70
2019-06-25T15:38:49.862Z,57.80
2019-06-25T15:41:31.450Z,57.70
2019-06-25T15:44:12.199Z,57.70
2019-06-25T15:46:53.435Z,57.80
2019-06-25T15:49:35.036Z,57.80
2019-06-25T15:52:16.453Z,58.00
2019-06-25T15:54:57.128Z,57.80
2019-06-25T15:57:38.011Z,57.80
2019-06-25T16:00:18.795Z,57.80
2019-06-25T16:03:00.059Z,57.80
2019-06-25T16:05:41.416Z,57.80
2019-06-25T16:08:23.054Z,57.80
2019-06-25T16:11:03.842Z,57.80
2019-06-25T16:13:47.549Z,57.80
2019-06-25T16:16:27.885Z,57.90
2019-06-25T16:19:09.214Z,57.90
2019-06-25T16:21:50.805Z,57.90
2019-06-25T16:24:31.467Z,57.90
2019-06-25T16:27:13.173Z,57.90
2019-06-25T16:29:55.848Z,58.00
2019-06-25T16:32:36.748Z,57.90
2019-06-25T16:35:17.419Z,57.90
2019-06-25T16:38:00.637Z,58.00
2019-06-25T16:40:41.789Z,58.00
2019-06-25T16:43:23.577Z,58.00
2019-06-25T16:46:04.294Z,58.00
2019-06-25T16:48:45.629Z,58.00
2019-06-25T16:51:26.721Z,58.00
2019-06-25T16:54:07.415Z,58.10
2019-06-25T16:56:48.167Z,58.10
2019-06-25T16:59:29.785Z,58.10
2019-06-25T17:02:10.548Z,58.10
2019-06-25T17:04:52.188Z,58.20
2019-06-25T17:07:33.619Z,58.20
2019-06-25T17:10:14.921Z,58.30
2019-06-25T17:12:56.245Z,58.20
2019-06-25T17:15:37.731Z,58.20
2019-06-25T17:18:19.302Z,58.20
2019-06-25T17:20:59.984Z,58.20
2019-06-25T17:23:40.788Z,58.20
2019-06-25T17:26:21.711Z,58.20
2019-06-25T17:29:03.355Z,58.30
2019-06-25T17:31:44.100Z,58.30
2019-06-25T17:34:25.555Z,58.30
2019-06-25T17:37:07.077Z,58.40
2019-06-25T17:39:51.462Z,58.40
2019-06-25T17:42:30.969Z,58.40
2019-06-25T17:45:11.646Z,58.40
2019-06-25T17:47:52.317Z,58.40
2019-06-25T17:50:33.010Z,58.50
2019-06-25T17:56:33.174Z,58.50
2019-06-25T17:59:14.225Z,58.50
2019-06-25T18:01:55.626Z,58.50
2019-06-25T18:04:36.351Z,58.60
2019-06-25T18:07:20.809Z,58.60
2019-06-25T18:10:07.914Z,59.20
2019-06-25T18:12:43.062Z,58.60
2019-06-25T18:15:24.465Z,58.60
2019-06-25T18:18:06.049Z,58.60
2019-06-25T18:20:47.447Z,58.60
2019-06-25T18:23:28.150Z,58.60
2019-06-25T18:26:10.026Z,58.60
2019-06-25T18:28:53.909Z,58.70
2019-06-25T18:31:34.255Z,58.70
2019-06-25T18:34:15.659Z,58.70
2019-06-25T18:40:02.329Z,58.70
2019-06-25T18:42:43.786Z,58.70
2019-06-25T18:45:25.439Z,58.80
2019-06-25T18:48:06.886Z,58.80
2019-06-25T18:50:48.393Z,58.80
2019-06-25T18:53:30.072Z,58.80
2019-06-25T18:56:10.798Z,58.80
2019-06-25T18:58:51.517Z,58.80
2019-06-25T19:01:32.284Z,58.80
2019-06-25T19:04:13.046Z,58.80
2019-06-25T19:06:54.489Z,58.80
2019-06-25T19:09:36.231Z,58.80
2019-06-25T19:12:17.592Z,58.80
2019-06-25T19:14:59.044Z,58.90
2019-06-25T19:17:43.497Z,58.90
2019-06-25T19:23:13.273Z,58.90
2019-06-25T19:25:54.038Z,58.90
2019-06-25T19:31:25.815Z,58.90
2019-06-25T19:36:55.791Z,59.00
2019-06-25T19:39:37.173Z,59.00
2019-06-25T19:42:21.659Z,59.00
2019-06-25T19:45:03.186Z,59.00
2019-06-25T19:47:50.284Z,59.00
2019-06-25T19:50:26.867Z,59.00
2019-06-25T19:53:07.648Z,58.90
2019-06-25T19:58:31.769Z,59.00
2019-06-25T20:04:01.791Z,59.00
2019-06-25T20:06:43.296Z,59.10
2019-06-25T20:12:10.623Z,59.10
2019-06-25T20:14:51.894Z,59.10
2019-06-25T20:17:33.531Z,59.00
2019-06-25T20:20:14.997Z,59.10
2019-06-25T20:22:55.865Z,59.10
2019-06-25T20:28:21.088Z,59.20
2019-06-25T20:31:02.720Z,59.20
2019-06-25T20:33:43.464Z,59.20
2019-06-25T20:39:07.326Z,59.10
2019-06-25T20:44:31.330Z,59.20
2019-06-25T20:47:12.904Z,59.20
2019-06-25T20:49:54.396Z,59.10
2019-06-25T20:58:07.255Z,59.20
2019-06-25T21:03:32.464Z,59.20
2019-06-25T21:06:13.162Z,59.20
2019-06-25T21:11:48.851Z,59.20
2019-06-25T21:14:27.407Z,59.20
2019-06-25T21:17:08.047Z,59.20
2019-06-25T21:19:49.754Z,59.20
2019-06-25T21:22:30.455Z,59.30
2019-06-25T21:25:11.433Z,59.20
2019-06-25T21:27:53.145Z,59.30
2019-06-25T21:38:57.682Z,59.20
2019-06-25T21:41:38.413Z,59.30
2019-06-25T21:44:19.861Z,59.30
2019-06-25T21:47:06.915Z,59.30
2019-06-25T21:49:44.015Z,59.30
2019-06-25T21:55:09.594Z,59.30
2019-06-25T21:57:50.942Z,59.40
2019-06-25T22:00:33.715Z,59.30
2019-06-25T22:03:14.653Z,59.30
2019-06-25T22:05:56.035Z,59.30
2019-06-25T22:08:36.748Z,59.40
2019-06-25T22:11:18.257Z,59.40
2019-06-25T22:13:58.965Z,59.40
2019-06-25T22:16:40.232Z,59.40
2019-06-25T22:19:21.874Z,59.30
2019-06-25T22:22:15.817Z,59.40
2019-06-25T22:24:46.031Z,59.20
2019-06-25T22:27:27.773Z,59.30
2019-06-25T22:30:09.226Z,59.30
2019-06-25T22:32:50.054Z,59.40
2019-06-25T22:35:31.420Z,59.30
2019-06-25T22:38:12.169Z,59.30
2019-06-25T22:40:52.892Z,59.30
2019-06-25T22:43:34.253Z,59.40
2019-06-25T22:46:14.965Z,59.30
2019-06-25T22:48:55.754Z,59.30
2019-06-25T22:51:37.174Z,59.40
2019-06-25T22:54:18.776Z,59.30
2019-06-25T22:57:00.132Z,59.40
2019-06-25T22:59:41.655Z,59.40
2019-06-25T23:02:23.298Z,59.40
2019-06-25T23:05:04.008Z,59.40
2019-06-25T23:07:44.710Z,59.40
2019-06-25T23:10:26.446Z,59.40
2019-06-25T23:13:07.815Z,59.40
2019-06-25T23:15:48.558Z,59.40
2019-06-25T23:18:29.595Z,59.40
2019-06-25T23:21:10.187Z,59.50
2019-06-25T23:23:51.074Z,59.40
2019-06-25T23:26:32.144Z,59.40
2019-06-25T23:29:13.624Z,59.50
2019-06-25T23:31:54.304Z,59.40
2019-06-25T23:34:35.697Z,59.40
2019-06-25T23:37:17.404Z,59.40
2019-06-25T23:39:58.666Z,59.40
2019-06-25T23:42:39.343Z,59.40
2019-06-25T23:45:20.746Z,59.40
2019-06-25T23:48:01.639Z,59.40
2019-06-25T23:50:42.983Z,59.40
2019-06-25T23:53:24.488Z,59.40
2019-06-25T23:56:05.111Z,59.40
2019-06-25T23:58:46.725Z,59.40
